Time;durP1;ratioP1;P1;durP2;ratioP2;P2;SDS_P1;SDS_P2;PMS_P1;PMS_P2;Temp;Humidity;BMP_temperature;BMP_pressure;BME280_temperature;BME280_humidity;BME280_pressure;Samples;Min_cycle;Max_cycle;Signal;HPM_P1;HPM_P2
2022/02/28 00:00:46;;;;;;;21.67;10.45;;;6.10;95.70;;;;;;5114316;28;20050;-83
2022/02/28 00:03:17;;;;;;;15.68;10.23;;;6.10;95.90;;;;;;5113610;28;20043;-83
2022/02/28 00:20:15;;;;;;;;;;;;;;;;;;;;;
2022/02/28 00:23:37;;;;;;;19.65;11.55;;;5.90;96.50;;;;;;4957989;28;20194;-83
2022/02/28 00:26:19;;;;;;;;;;;;;;;;;;;;;
2022/02/28 00:29:15;;;;;;;18.08;9.88;;;5.90;96.60;;;;;;4991589;28;20022;-82
2022/02/28 00:32:19;;;;;;;18.02;9.90;;;5.80;96.70;;;;;;4997876;28;20040;-82
2022/02/28 00:35:17;;;;;;;16.42;10.65;;;5.70;96.80;;;;;;4936161;28;20023;-82
2022/02/28 00:37:58;;;;;;;15.65;10.55;;;5.70;96.90;;;;;;5108129;28;20092;-83
2022/02/28 00:40:56;;;;;;;17.00;9.60;;;5.70;97.10;;;;;;5093049;28;20042;-81
2022/02/28 00:44:19;;;;;;;15.75;10.88;;;5.70;97.10;;;;;;5105406;28;20126;-81
2022/02/28 00:46:54;;;;;;;18.90;11.18;;;5.70;96.90;;;;;;5017082;28;20460;-82
2022/02/28 00:49:22;;;;;;;17.13;10.40;;;5.60;96.90;;;;;;5002146;28;20062;-82
2022/02/28 00:51:52;;;;;;;17.15;10.65;;;5.60;97.10;;;;;;5014392;28;20026;-82
2022/02/28 00:55:21;;;;;;;13.88;9.30;;;5.60;97.20;;;;;;5049214;27;20522;-80
2022/02/28 00:58:52;;;;;;;;;;;;;;;;;;;;;
2022/02/28 01:01:27;;;;;;;23.17;11.52;;;5.80;96.80;;;;;;5021838;28;20053;-82
2022/02/28 01:04:15;;;;;;;19.38;10.30;;;5.80;96.60;;;;;;5102971;28;20036;-82
2022/02/28 01:10:36;;;;;;;16.42;10.07;;;5.90;96.40;;;;;;5041266;28;20028;-82
2022/02/28 01:13:33;;;;;;;18.98;10.98;;;5.90;96.40;;;;;;5034540;28;20562;-82
2022/02/28 01:15:59;;;;;;;14.68;9.38;;;5.90;96.30;;;;;;5039050;28;20033;-82
2022/02/28 01:18:30;;;;;;;18.02;10.95;;;5.90;96.30;;;;;;5044460;28;20485;-81
2022/02/28 01:20:56;;;;;;;17.10;10.50;;;5.90;96.70;;;;;;5060014;28;20039;-82
2022/02/28 01:23:25;;;;;;;20.88;10.38;;;5.80;96.40;;;;;;5102276;28;20030;-81
2022/02/28 01:27:12;;;;;;;;;;;;;;;;;;;;;
2022/02/28 01:30:02;;;;;;;16.88;10.23;;;5.70;96.90;;;;;;5080336;28;20681;-82
2022/02/28 01:32:44;;;;;;;13.23;9.93;;;5.70;96.70;;;;;;5101417;28;20012;-82
2022/02/28 01:35:22;;;;;;;14.63;10.80;;;5.70;96.80;;;;;;5091499;28;20482;-82
2022/02/28 01:38:20;;;;;;;19.25;11.25;;;5.60;97.50;;;;;;5106263;28;20031;-82
2022/02/28 01:44:41;;;;;;;14.80;10.63;;;5.70;96.40;;;;;;5105530;28;20169;-81
2022/02/28 01:47:35;;;;;;;16.33;10.48;;;5.80;96.40;;;;;;5084550;28;20031;-82
2022/02/28 01:51:01;;;;;;;17.08;10.90;;;5.90;95.90;;;;;;5102904;28;20059;-81
2022/02/28 01:57:49;;;;;;;20.92;9.85;;;6.00;95.60;;;;;;5061380;28;20124;-83
2022/02/28 02:01:00;;;;;;;17.35;11.00;;;6.00;95.10;;;;;;5053936;28;20053;-81
2022/02/28 02:03:44;;;;;;;25.45;10.98;;;6.00;95.20;;;;;;4979879;28;20042;-82
2022/02/28 02:10:53;;;;;;;15.82;10.38;;;6.00;95.10;;;;;;4956671;28;20065;-82
2022/02/28 02:14:20;;;;;;;17.00;10.60;;;6.00;94.80;;;;;;4966303;28;20459;-81
2022/02/28 02:21:06;;;;;;;13.90;10.07;;;6.00;94.70;;;;;;4932582;29;20063;-82
2022/02/28 02:27:05;;;;;;;16.58;10.45;;;6.00;94.60;;;;;;4915809;29;20043;-84
2022/02/28 02:30:10;;;;;;;15.43;9.15;;;5.90;94.70;;;;;;4922823;28;20461;-82
2022/02/28 02:33:07;;;;;;;;;;;;;;;;;;;;;
2022/02/28 02:39:17;;;;;;;16.20;10.07;;;5.80;95.00;;;;;;5020606;28;20030;-82
2022/02/28 02:41:56;;;;;;;19.08;10.75;;;5.90;94.80;;;;;;5018795;28;20034;-82
2022/02/28 02:47:53;;;;;;;16.08;9.60;;;5.80;94.90;;;;;;5061661;27;20143;-81
2022/02/28 02:50:34;;;;;;;14.30;10.43;;;5.70;95.20;;;;;;5111589;27;20023;-81
2022/02/28 02:53:11;;;;;;;23.25;11.15;;;5.60;95.40;;;;;;5122588;27;20035;-83
2022/02/28 03:03:08;;;;;;;18.15;10.10;;;5.40;96.00;;;;;;5103346;27;20047;-82
2022/02/28 03:06:03;;;;;;;18.90;10.52;;;5.30;95.90;;;;;;5094982;28;20071;-82
2022/02/28 03:08:47;;;;;;;13.80;9.30;;;5.30;95.90;;;;;;5123335;27;20107;-82
2022/02/28 03:11:22;;;;;;;18.45;10.45;;;5.30;96.20;;;;;;5121852;27;20027;-82
2022/02/28 03:18:06;;;;;;;21.02;10.77;;;5.10;96.40;;;;;;5045071;28;20045;-82
2022/02/28 03:21:31;;;;;;;16.98;10.75;;;5.00;96.80;;;;;;5048718;27;20039;-82
2022/02/28 03:37:03;;;;;;;17.77;10.65;;;4.80;97.40;;;;;;5033605;28;20036;-82
2022/02/28 03:39:38;;;;;;;14.07;10.18;;;4.90;96.60;;;;;;5034591;28;20032;-82
2022/02/28 03:42:18;;;;;;;17.15;10.82;;;5.20;95.90;;;;;;5029941;28;20044;-82
2022/02/28 03:49:06;;;;;;;18.58;11.15;;;5.40;95.30;;;;;;5004341;28;20092;-82
2022/02/28 03:51:35;;;;;;;19.55;11.30;;;5.50;95.20;;;;;;4935061;28;20110;-82
2022/02/28 03:58:09;;;;;;;15.13;10.32;;;5.60;94.60;;;;;;4941907;29;20513;-82
2022/02/28 04:00:44;;;;;;;18.45;11.07;;;5.60;94.10;;;;;;4982670;28;20097;-82
2022/02/28 04:03:38;;;;;;;18.40;10.18;;;5.60;94.30;;;;;;5103415;28;20043;-82
2022/02/28 04:09:56;;;;;;;20.00;10.70;;;5.60;94.70;;;;;;4990616;28;20141;-82
2022/02/28 04:12:24;;;;;;;15.93;10.70;;;5.40;94.70;;;;;;5025105;28;20032;-82
2022/02/28 04:21:45;;;;;;;23.58;11.50;;;5.30;95.30;;;;;;5127095;27;20073;-82
2022/02/28 04:27:24;;;;;;;17.52;10.30;;;5.30;94.90;;;;;;5122512;27;20543;-82
2022/02/28 04:29:55;;;;;;;15.57;10.73;;;5.20;95.20;;;;;;5125536;27;20038;-82
2022/02/28 04:42:33;;;;;;;17.95;11.00;;;5.10;95.00;;;;;;5085989;27;20073;-81
2022/02/28 04:48:36;;;;;;;17.42;10.00;;;5.10;94.30;;;;;;5107539;27;20171;-82
2022/02/28 04:51:37;;;;;;;17.67;10.55;;;5.20;93.40;;;;;;5125532;27;20057;-83
2022/02/28 04:54:21;;;;;;;17.33;9.93;;;5.30;93.20;;;;;;5125041;27;20391;-81
2022/02/28 04:56:53;;;;;;;17.38;10.68;;;5.20;93.50;;;;;;5124445;27;20029;-81
2022/02/28 04:59:19;;;;;;;15.70;9.85;;;5.20;93.20;;;;;;5129845;27;20027;-81
2022/02/28 05:02:27;;;;;;;14.98;10.43;;;5.20;93.20;;;;;;5129807;27;20532;-81
2022/02/28 05:05:03;;;;;;;15.00;9.75;;;5.20;94.70;;;;;;5125851;27;20042;-83
2022/02/28 05:07:37;;;;;;;20.00;11.10;;;5.20;93.70;;;;;;5113810;27;20030;-82
2022/02/28 05:10:12;;;;;;;17.63;10.73;;;5.40;93.70;;;;;;5111807;27;20102;-82
2022/02/28 05:12:41;;;;;;;17.98;11.32;;;5.30;93.50;;;;;;5106380;27;20015;-83
2022/02/28 05:15:11;;;;;;;19.90;10.23;;;5.30;94.20;;;;;;5119794;27;20038;-83
2022/02/28 05:17:37;;;;;;;19.08;10.35;;;5.30;94.50;;;;;;5126478;27;20099;-84
2022/02/28 05:20:04;;;;;;;14.55;10.13;;;5.20;94.30;;;;;;5122063;27;20506;-83
2022/02/28 05:22:32;;;;;;;17.48;10.80;;;5.10;94.70;;;;;;5122291;27;20027;-82
2022/02/28 05:24:58;;;;;;;16.17;10.07;;;4.90;94.60;;;;;;5106275;28;20057;-84
2022/02/28 05:27:24;;;;;;;16.92;10.57;;;4.80;95.40;;;;;;5125953;27;20023;-82
2022/02/28 05:29:50;;;;;;;16.75;10.60;;;4.70;96.20;;;;;;5122329;27;20450;-82
2022/02/28 05:32:19;;;;;;;16.25;10.35;;;4.60;95.90;;;;;;5103249;27;20019;-81
2022/02/28 05:34:45;;;;;;;16.73;10.65;;;4.80;95.20;;;;;;5110284;27;20026;-82
2022/02/28 05:37:30;;;;;;;18.90;11.07;;;4.70;95.90;;;;;;5122055;27;20027;-81
2022/02/28 05:40:17;;;;;;;17.67;10.63;;;4.60;96.90;;;;;;5122230;27;20454;-83
2022/02/28 05:42:43;;;;;;;18.15;10.75;;;4.50;96.70;;;;;;5118161;27;20027;-83
2022/02/28 05:45:15;;;;;;;18.23;11.48;;;4.40;96.20;;;;;;5111652;27;20035;-83
2022/02/28 05:47:43;;;;;;;16.07;10.63;;;4.40;96.20;;;;;;5101252;28;20024;-83
2022/02/28 05:50:16;;;;;;;22.33;12.00;;;4.50;96.50;;;;;;5101305;27;20072;-82
2022/02/28 05:52:45;;;;;;;18.20;11.90;;;4.60;95.60;;;;;;5125475;27;20049;-82
2022/02/28 05:55:12;;;;;;;20.67;10.95;;;4.80;95.40;;;;;;5111678;27;20088;-83
2022/02/28 05:57:39;;;;;;;15.18;10.68;;;5.00;94.80;;;;;;5121044;27;20020;-82
2022/02/28 06:00:11;;;;;;;22.50;10.90;;;5.00;94.70;;;;;;5128173;27;20027;-82
2022/02/28 06:02:37;;;;;;;17.80;10.43;;;5.20;94.70;;;;;;5104752;27;20406;-81
2022/02/28 06:05:03;;;;;;;17.08;11.05;;;5.20;94.90;;;;;;5118861;27;20040;-81
2022/02/28 06:08:00;;;;;;;17.20;9.82;;;5.10;94.90;;;;;;5125558;27;20427;-82
2022/02/28 06:10:24;;;;;;;26.02;11.52;;;5.10;95.30;;;;;;5111276;27;20606;-82
2022/02/28 06:12:50;;;;;;;19.30;12.40;;;5.10;95.50;;;;;;5104199;27;20016;-82
2022/02/28 06:15:16;;;;;;;17.38;11.57;;;5.10;95.80;;;;;;5125830;27;20024;-81
2022/02/28 06:17:55;;;;;;;20.92;12.02;;;5.10;95.70;;;;;;5122282;27;20485;-82
2022/02/28 06:20:35;;;;;;;20.95;11.23;;;5.20;95.60;;;;;;5111404;27;20050;-83
2022/02/28 06:23:00;;;;;;;15.82;10.95;;;5.20;95.40;;;;;;5126182;27;20367;-82
2022/02/28 06:25:26;;;;;;;18.15;11.57;;;5.20;95.60;;;;;;5107605;27;20046;-83
2022/02/28 06:27:55;;;;;;;16.15;10.95;;;5.10;95.50;;;;;;5105820;27;20035;-82
2022/02/28 06:30:21;;;;;;;18.98;11.38;;;5.10;95.70;;;;;;5119868;27;20032;-82
2022/02/28 06:32:47;;;;;;;16.90;11.35;;;5.10;95.90;;;;;;5105188;27;20028;-81
2022/02/28 06:35:40;;;;;;;18.38;11.10;;;5.10;95.80;;;;;;5119268;27;20037;-81
2022/02/28 06:38:09;;;;;;;22.00;11.52;;;5.20;95.90;;;;;;5108802;27;20039;-84
2022/02/28 06:40:38;;;;;;;19.10;11.18;;;5.20;96.00;;;;;;5102739;28;20562;-84
2022/02/28 06:43:09;;;;;;;17.40;11.32;;;5.20;95.50;;;;;;5123400;27;20027;-84
2022/02/28 06:45:35;;;;;;;23.20;11.52;;;5.20;95.60;;;;;;5101161;28;20039;-85
2022/02/28 06:48:02;;;;;;;18.33;10.98;;;5.20;95.80;;;;;;5108784;27;20071;-84
2022/02/28 06:50:50;;;;;;;18.52;11.30;;;5.20;95.70;;;;;;5107070;27;20027;-83
2022/02/28 06:53:18;;;;;;;20.52;12.57;;;5.20;96.00;;;;;;5101512;28;20611;-85
2022/02/28 06:55:54;;;;;;;19.95;11.30;;;5.30;95.90;;;;;;5119601;27;20027;-83
2022/02/28 06:58:48;;;;;;;16.38;11.25;;;5.30;96.00;;;;;;5123166;27;20382;-84
2022/02/28 07:01:33;;;;;;;20.48;12.15;;;5.30;96.00;;;;;;5100663;27;20053;-84
2022/02/28 07:07:30;;;;;;;18.80;11.50;;;5.40;95.60;;;;;;5124955;27;20033;-85
2022/02/28 07:10:02;;;;;;;30.48;11.55;;;5.60;95.40;;;;;;5120699;27;20027;-88
2022/02/28 07:12:43;;;;;;;22.05;11.85;;;5.70;95.20;;;;;;5093916;28;20023;-89
2022/02/28 07:15:14;;;;;;;21.30;12.98;;;5.70;95.20;;;;;;5106790;27;20122;-89
2022/02/28 07:17:43;;;;;;;15.82;11.48;;;5.90;94.80;;;;;;5126791;27;20019;-88
2022/02/28 07:20:12;;;;;;;20.65;12.13;;;5.90;94.80;;;;;;5131176;27;20172;-88
2022/02/28 07:22:59;;;;;;;17.60;11.50;;;6.00;95.00;;;;;;5124560;27;20007;-86
2022/02/28 07:25:25;;;;;;;21.10;12.05;;;6.10;94.10;;;;;;5097808;28;20565;-86
2022/02/28 07:27:56;;;;;;;19.48;10.93;;;6.20;93.50;;;;;;5092169;27;20022;-84
2022/02/28 07:30:22;;;;;;;18.05;11.68;;;6.30;93.30;;;;;;5114476;27;20027;-88
2022/02/28 07:32:48;;;;;;;19.50;11.45;;;6.30;93.10;;;;;;5125489;27;20049;-88
2022/02/28 07:35:14;;;;;;;21.13;11.60;;;6.40;93.10;;;;;;5109964;27;20027;-82
2022/02/28 07:37:41;;;;;;;24.83;11.70;;;6.40;93.00;;;;;;5121627;27;20477;-82
2022/02/28 07:40:10;;;;;;;15.55;9.60;;;6.50;93.00;;;;;;5100473;27;20023;-82
2022/02/28 07:42:37;;;;;;;19.73;12.45;;;6.50;92.30;;;;;;5117029;27;20034;-81
2022/02/28 07:45:04;;;;;;;20.73;12.60;;;6.60;92.60;;;;;;5106138;28;20130;-82
2022/02/28 07:47:30;;;;;;;23.75;13.05;;;6.50;93.10;;;;;;5101950;28;20023;-82
2022/02/28 07:49:59;;;;;;;22.88;11.23;;;6.70;93.00;;;;;;5116995;27;20121;-82
2022/02/28 07:52:24;;;;;;;23.20;12.35;;;6.70;92.50;;;;;;5117877;27;20015;-82
2022/02/28 07:54:59;;;;;;;21.70;12.25;;;6.80;92.10;;;;;;5114722;28;20034;-82
2022/02/28 07:57:33;;;;;;;23.23;11.65;;;6.80;91.80;;;;;;5108561;27;20019;-83
2022/02/28 08:00:04;;;;;;;19.38;11.65;;;6.80;91.70;;;;;;5106915;28;20030;-82
2022/02/28 08:03:02;;;;;;;20.77;11.40;;;6.80;91.50;;;;;;5099199;28;20127;-83
2022/02/28 08:05:40;;;;;;;22.55;11.65;;;6.90;91.40;;;;;;5005642;28;20293;-82
2022/02/28 08:08:09;;;;;;;33.45;12.50;;;6.90;91.70;;;;;;5082536;28;20457;-82
2022/02/28 08:10:43;;;;;;;20.58;11.52;;;7.00;91.50;;;;;;5102080;28;20111;-82
2022/02/28 08:13:18;;;;;;;20.38;11.82;;;7.00;91.40;;;;;;5101488;28;20505;-83
2022/02/28 08:15:44;;;;;;;17.00;10.73;;;7.10;91.00;;;;;;5097699;28;20031;-82
2022/02/28 08:18:10;;;;;;;16.17;10.82;;;7.10;90.90;;;;;;5084743;28;20386;-83
2022/02/28 08:20:36;;;;;;;18.05;10.77;;;7.20;91.40;;;;;;5101689;28;20097;-83
2022/02/28 08:23:03;;;;;;;17.88;11.30;;;7.30;90.80;;;;;;5100589;28;20031;-81
2022/02/28 08:25:29;;;;;;;23.38;10.88;;;7.40;90.90;;;;;;5098615;28;20559;-82
2022/02/28 08:27:55;;;;;;;18.25;11.35;;;7.40;90.10;;;;;;5102791;28;20012;-82
2022/02/28 08:30:26;;;;;;;23.95;12.05;;;7.40;90.10;;;;;;5085944;28;20616;-82
2022/02/28 08:32:53;;;;;;;19.05;11.85;;;7.50;89.80;;;;;;5083127;28;20034;-82
2022/02/28 08:35:39;;;;;;;22.48;12.10;;;7.50;88.70;;;;;;5077478;28;20023;-82
2022/02/28 08:38:17;;;;;;;18.70;11.52;;;7.50;89.50;;;;;;5072424;28;20025;-82
2022/02/28 08:40:45;;;;;;;27.63;12.85;;;7.60;88.70;;;;;;5094971;28;20024;-83
2022/02/28 08:43:26;;;;;;;19.55;10.10;;;7.50;88.30;;;;;;5093777;28;20026;-82
2022/02/28 08:45:53;;;;;;;15.18;10.25;;;7.60;87.00;;;;;;5080342;28;20052;-82
2022/02/28 08:48:19;;;;;;;20.30;10.43;;;7.60;86.90;;;;;;5101481;28;20058;-82
2022/02/28 08:50:45;;;;;;;21.52;11.25;;;7.60;86.80;;;;;;5097573;28;20032;-82
2022/02/28 08:53:11;;;;;;;19.73;12.52;;;7.70;85.50;;;;;;5082399;28;20028;-82
2022/02/28 08:55:37;;;;;;;24.70;10.93;;;7.70;86.40;;;;;;5098710;28;20111;-82
2022/02/28 08:58:03;;;;;;;22.58;11.93;;;7.70;85.40;;;;;;5097657;28;20481;-83
2022/02/28 09:00:29;;;;;;;15.90;10.35;;;7.70;85.60;;;;;;5073193;28;20481;-82
2022/02/28 09:03:08;;;;;;;14.30;9.63;;;7.70;84.70;;;;;;5108326;28;20078;-82
2022/02/28 09:05:39;;;;;;;16.77;9.70;;;7.80;84.60;;;;;;5098639;28;20627;-82
2022/02/28 09:08:05;;;;;;;17.35;11.32;;;7.90;84.00;;;;;;5104588;28;20020;-83
2022/02/28 09:10:33;;;;;;;17.35;10.00;;;7.90;83.60;;;;;;5106553;28;20463;-83
2022/02/28 09:12:59;;;;;;;14.18;9.30;;;8.00;84.20;;;;;;5101229;27;20113;-82
2022/02/28 09:15:45;;;;;;;16.58;9.77;;;8.00;83.10;;;;;;5120109;27;20516;-82
2022/02/28 09:18:12;;;;;;;17.95;10.15;;;8.10;82.30;;;;;;5122171;27;20023;-82
2022/02/28 09:20:38;;;;;;;16.88;9.55;;;8.10;82.50;;;;;;5119794;27;20023;-82
2022/02/28 09:23:05;;;;;;;11.30;8.82;;;8.10;81.20;;;;;;5124976;27;20023;-82
2022/02/28 09:25:32;;;;;;;15.35;9.55;;;8.10;82.00;;;;;;5103425;27;20047;-82
2022/02/28 09:27:58;;;;;;;16.35;9.00;;;8.10;81.80;;;;;;5120918;27;20120;-82
2022/02/28 09:30:30;;;;;;;14.45;8.20;;;8.20;79.80;;;;;;5124573;27;20494;-83
2022/02/28 09:33:16;;;;;;;14.35;8.52;;;8.30;80.50;;;;;;5122413;27;20521;-82
2022/02/28 09:35:42;;;;;;;12.10;8.43;;;8.30;79.90;;;;;;5124750;27;20034;-83
2022/02/28 09:38:08;;;;;;;12.73;8.05;;;8.40;78.40;;;;;;5121901;27;20027;-82
2022/02/28 09:40:34;;;;;;;12.13;8.32;;;8.50;79.50;;;;;;5119315;27;20051;-83
2022/02/28 09:43:03;;;;;;;12.60;8.45;;;8.60;80.10;;;;;;5123548;27;20447;-83
2022/02/28 09:45:29;;;;;;;15.25;7.93;;;8.60;77.30;;;;;;5119793;27;20031;-82
2022/02/28 09:47:59;;;;;;;13.32;8.13;;;8.50;79.90;;;;;;5123704;27;20018;-82
2022/02/28 09:50:30;;;;;;;19.27;8.93;;;8.60;79.70;;;;;;5119921;27;20023;-82
2022/02/28 09:52:58;;;;;;;12.88;7.70;;;8.80;77.60;;;;;;5124095;27;20615;-82
2022/02/28 09:55:24;;;;;;;10.30;7.55;;;9.00;76.70;;;;;;5101801;28;20378;-82
2022/02/28 09:57:51;;;;;;;14.65;9.30;;;9.20;76.40;;;;;;5124350;27;20021;-83
2022/02/28 10:00:22;;;;;;;18.20;8.00;;;9.60;76.40;;;;;;5120198;27;20493;-82
2022/02/28 10:03:06;;;;;;;11.13;7.95;;;10.00;75.60;;;;;;5095363;27;20083;-82
2022/02/28 10:05:32;;;;;;;12.18;7.95;;;10.30;71.90;;;;;;5119626;27;20035;-82
2022/02/28 10:08:06;;;;;;;10.75;8.07;;;10.40;71.10;;;;;;5124059;27;20359;-83
2022/02/28 10:10:34;;;;;;;15.93;9.10;;;10.50;70.90;;;;;;5120044;27;20414;-83
2022/02/28 10:13:01;;;;;;;11.45;7.30;;;10.60;70.20;;;;;;5123492;27;20031;-82
2022/02/28 10:15:27;;;;;;;11.50;7.75;;;10.80;69.70;;;;;;5117353;27;20432;-83
2022/02/28 10:17:55;;;;;;;10.63;7.18;;;10.90;69.40;;;;;;5123630;27;20106;-82
2022/02/28 10:20:49;;;;;;;11.48;7.30;;;10.90;70.90;;;;;;5118837;27;20512;-82
2022/02/28 10:23:16;;;;;;;11.50;7.28;;;10.90;67.90;;;;;;5123468;27;20016;-82
2022/02/28 10:25:43;;;;;;;10.82;6.70;;;10.80;67.60;;;;;;5101157;28;20572;-81
2022/02/28 10:28:27;;;;;;;16.63;7.85;;;10.80;66.90;;;;;;5123521;27;20019;-82
2022/02/28 10:31:16;;;;;;;9.23;6.53;;;10.60;67.10;;;;;;5101161;28;20031;-82
2022/02/28 10:33:43;;;;;;;9.43;6.47;;;10.40;68.40;;;;;;5119846;27;20545;-82
2022/02/28 10:36:13;;;;;;;12.80;7.35;;;10.40;67.30;;;;;;5101098;28;20507;-83
2022/02/28 10:38:51;;;;;;;15.65;7.40;;;10.40;66.60;;;;;;5103753;28;20106;-82
2022/02/28 10:41:36;;;;;;;10.90;6.80;;;10.30;66.80;;;;;;5100904;27;20035;-81
2022/02/28 10:44:02;;;;;;;13.10;7.32;;;10.30;67.50;;;;;;5119486;27;20077;-82
2022/02/28 10:46:36;;;;;;;9.65;7.13;;;10.30;67.30;;;;;;5121529;27;20500;-82
2022/02/28 10:49:21;;;;;;;11.52;6.50;;;10.40;66.50;;;;;;5101320;27;20024;-83
2022/02/28 10:51:53;;;;;;;11.70;7.50;;;10.30;65.00;;;;;;5103533;27;20493;-82
2022/02/28 10:54:25;;;;;;;14.85;6.28;;;10.40;66.10;;;;;;5124366;27;20026;-83
2022/02/28 10:57:00;;;;;;;10.50;6.03;;;10.40;65.80;;;;;;5122749;27;20019;-82
2022/02/28 10:59:31;;;;;;;11.55;6.50;;;10.50;65.10;;;;;;5099126;27;20035;-81
2022/02/28 11:02:00;;;;;;;9.45;6.03;;;10.60;66.50;;;;;;5118264;27;20079;-82
2022/02/28 11:04:33;;;;;;;12.20;6.50;;;10.70;65.70;;;;;;5118531;27;20495;-82
2022/02/28 11:06:59;;;;;;;7.38;5.65;;;10.80;64.00;;;;;;5118585;27;20551;-81
2022/02/28 11:09:47;;;;;;;10.82;6.10;;;10.50;61.10;;;;;;5120463;27;20049;-82
2022/02/28 11:12:26;;;;;;;8.60;6.13;;;10.40;62.20;;;;;;5103978;27;20046;-81
2022/02/28 11:14:56;;;;;;;9.73;6.40;;;10.70;65.20;;;;;;5119931;27;20261;-81
2022/02/28 11:17:27;;;;;;;12.88;6.70;;;11.30;64.20;;;;;;5119891;27;20482;-82
2022/02/28 11:19:55;;;;;;;7.80;5.95;;;11.90;61.10;;;;;;5120109;27;20023;-82
2022/02/28 11:22:22;;;;;;;9.57;6.28;;;12.40;59.20;;;;;;5119844;27;20016;-81
2022/02/28 11:24:48;;;;;;;10.93;6.75;;;12.50;58.40;;;;;;5101307;27;20130;-80
2022/02/28 11:27:15;;;;;;;9.73;5.95;;;12.40;57.80;;;;;;5119873;27;20014;-81
2022/02/28 11:29:44;;;;;;;14.35;6.30;;;12.20;58.30;;;;;;5119470;27;20027;-82
2022/02/28 11:32:10;;;;;;;10.18;6.68;;;12.50;57.90;;;;;;5119359;27;20011;-82
2022/02/28 11:34:39;;;;;;;9.93;6.35;;;12.60;58.90;;;;;;5100882;28;20023;-81
2022/02/28 11:37:12;;;;;;;12.40;6.75;;;12.80;58.00;;;;;;5120625;27;20011;-81
2022/02/28 11:40:04;;;;;;;11.07;6.28;;;12.80;58.10;;;;;;5119027;27;20027;-84
2022/02/28 11:43:15;;;;;;;11.63;6.40;;;12.70;57.70;;;;;;5112338;27;20462;-81
2022/02/28 11:45:57;;;;;;;9.05;6.03;;;13.00;58.00;;;;;;5055967;28;20043;-82
2022/02/28 11:48:43;;;;;;;10.88;6.28;;;13.20;57.60;;;;;;5101621;28;20043;-82
2022/02/28 11:51:20;;;;;;;9.70;6.80;;;13.40;59.00;;;;;;5099947;28;20023;-81
2022/02/28 11:53:51;;;;;;;10.20;7.00;;;13.40;55.90;;;;;;5107856;28;20034;-81
2022/02/28 11:56:17;;;;;;;11.02;7.45;;;13.20;55.80;;;;;;5100426;28;20401;-81
2022/02/28 11:59:22;;;;;;;13.82;6.43;;;13.00;56.30;;;;;;5101592;28;20019;-81
2022/02/28 12:01:49;;;;;;;11.82;6.28;;;12.90;56.40;;;;;;5117698;28;20043;-81
2022/02/28 12:04:38;;;;;;;12.15;6.75;;;12.70;56.80;;;;;;5122470;28;20489;-81
2022/02/28 12:07:05;;;;;;;9.98;6.32;;;12.60;56.60;;;;;;5096920;28;20112;-81
2022/02/28 12:09:37;;;;;;;11.23;6.57;;;12.30;57.00;;;;;;5104108;28;20019;-81
2022/02/28 12:12:31;;;;;;;9.70;6.77;;;12.00;57.80;;;;;;5120811;28;20023;-81
2022/02/28 12:15:01;;;;;;;8.95;5.82;;;12.00;57.60;;;;;;5123435;27;20076;-81
2022/02/28 12:17:37;;;;;;;7.97;6.22;;;12.10;56.70;;;;;;5091959;28;20099;-81
2022/02/28 12:20:19;;;;;;;9.98;6.75;;;12.20;57.70;;;;;;5100448;28;20035;-81
2022/02/28 12:22:54;;;;;;;;;;;12.30;57.40;;;;;;5101619;28;20026;-83
2022/02/28 12:25:32;;;;;;;8.88;6.20;;;12.20;57.50;;;;;;5124375;27;19916;-81
2022/02/28 12:28:15;;;;;;;9.45;6.22;;;12.40;55.70;;;;;;5121804;27;20027;-82
2022/02/28 12:30:47;;;;;;;11.13;6.70;;;13.90;53.90;;;;;;5120824;27;20023;-82
2022/02/28 12:33:19;;;;;;;10.20;6.43;;;17.60;50.90;;;;;;5119002;28;20024;-82
2022/02/28 12:35:59;;;;;;;8.60;6.28;;;20.40;47.50;;;;;;5117587;28;20363;-83
2022/02/28 12:38:28;;;;;;;11.43;6.18;;;21.70;44.80;;;;;;5121823;27;20026;-83
2022/02/28 12:40:58;;;;;;;8.95;6.38;;;23.30;42.40;;;;;;5117561;27;20088;-82
2022/02/28 12:43:26;;;;;;;8.77;6.53;;;24.20;39.80;;;;;;5123813;27;20022;-82
2022/02/28 12:45:57;;;;;;;9.30;6.40;;;25.50;38.60;;;;;;5123452;27;20031;-82
2022/02/28 12:48:25;;;;;;;9.80;6.05;;;26.20;36.60;;;;;;5125345;27;20115;-82
2022/02/28 12:50:54;;;;;;;10.85;6.50;;;25.30;36.00;;;;;;5121653;27;20035;-82
2022/02/28 12:53:20;;;;;;;8.48;6.07;;;24.60;36.60;;;;;;5107030;28;20019;-82
2022/02/28 12:56:02;;;;;;;8.90;5.97;;;24.80;36.40;;;;;;5102648;28;20481;-83
2022/02/28 12:58:30;;;;;;;11.17;6.50;;;25.30;35.00;;;;;;5125311;27;20371;-82
2022/02/28 13:01:27;;;;;;;8.20;6.18;;;25.50;36.70;;;;;;5121239;27;20291;-82
2022/02/28 13:03:59;;;;;;;7.85;5.63;;;26.50;35.80;;;;;;5100486;27;20131;-82
2022/02/28 13:06:27;;;;;;;6.80;6.03;;;27.40;33.80;;;;;;5126308;27;20027;-82
2022/02/28 13:09:11;;;;;;;11.48;6.10;;;26.90;33.30;;;;;;5102236;27;20011;-82
2022/02/28 13:11:43;;;;;;;9.20;5.85;;;26.50;34.80;;;;;;5123822;27;20031;-82
2022/02/28 13:14:20;;;;;;;8.02;5.95;;;27.10;33.50;;;;;;5121926;27;20015;-82
2022/02/28 13:16:49;;;;;;;8.30;5.53;;;26.40;33.70;;;;;;5122971;27;20038;-82
2022/02/28 13:19:16;;;;;;;10.60;6.25;;;26.20;33.60;;;;;;5125281;27;20012;-82
2022/02/28 13:21:54;;;;;;;8.27;6.07;;;26.90;33.90;;;;;;5124640;27;20513;-82
2022/02/28 13:24:21;;;;;;;7.40;6.10;;;27.10;34.00;;;;;;5126417;27;20027;-83
2022/02/28 13:26:48;;;;;;;10.05;5.68;;;27.70;33.30;;;;;;5128033;27;20028;-82
2022/02/28 13:29:19;;;;;;;10.80;5.53;;;28.50;33.00;;;;;;5108095;27;20053;-82
2022/02/28 13:31:57;;;;;;;9.50;6.28;;;29.40;31.70;;;;;;5109181;27;20035;-83
2022/02/28 13:34:24;;;;;;;6.53;5.82;;;29.60;30.80;;;;;;5118786;27;20015;-82
2022/02/28 13:36:53;;;;;;;8.00;6.03;;;30.00;30.90;;;;;;5123638;27;20472;-83
2022/02/28 13:39:33;;;;;;;9.80;5.93;;;29.60;30.60;;;;;;5121116;27;20023;-82
2022/02/28 13:42:12;;;;;;;10.57;6.15;;;29.30;30.90;;;;;;5120316;27;20385;-83
2022/02/28 13:44:41;;;;;;;8.93;6.18;;;29.60;31.40;;;;;;5123525;27;20031;-81
2022/02/28 13:47:12;;;;;;;9.45;6.18;;;28.00;30.80;;;;;;5125137;27;20442;-84
2022/02/28 13:49:39;;;;;;;10.60;5.93;;;25.60;32.40;;;;;;5125406;27;20015;-83
2022/02/28 13:52:11;;;;;;;8.07;6.00;;;22.00;35.10;;;;;;5122133;27;20065;-87
2022/02/28 13:54:56;;;;;;;8.15;6.35;;;18.50;38.80;;;;;;5132268;27;20011;-88
2022/02/28 13:57:23;;;;;;;8.60;6.38;;;16.20;41.90;;;;;;5117939;27;20030;-86
2022/02/28 14:00:14;;;;;;;11.02;6.25;;;15.60;43.50;;;;;;5144365;27;20058;-93
2022/02/28 14:02:59;;;;;;;11.07;5.43;;;17.20;43.20;;;;;;5126591;27;20046;-85
2022/02/28 14:05:48;;;;;;;9.95;6.65;;;21.00;38.90;;;;;;5116884;27;20088;-87
2022/02/28 14:08:25;;;;;;;9.30;6.88;;;21.90;36.50;;;;;;5128490;27;20016;-83
2022/02/28 14:11:03;;;;;;;10.25;6.65;;;20.40;36.80;;;;;;5112973;28;20073;-86
2022/02/28 14:13:41;;;;;;;9.27;6.43;;;17.40;40.10;;;;;;5131055;27;20030;-86
2022/02/28 14:16:21;;;;;;;9.48;6.20;;;17.10;41.60;;;;;;5116482;27;20085;-87
2022/02/28 14:19:16;;;;;;;11.07;7.05;;;17.90;40.60;;;;;;5120314;27;20012;-83
2022/02/28 14:21:51;;;;;;;10.60;7.25;;;17.00;41.10;;;;;;5121828;27;20027;-88
2022/02/28 14:24:20;;;;;;;12.15;6.50;;;17.40;42.10;;;;;;5111683;27;20035;-87
2022/02/28 14:26:52;;;;;;;16.98;6.40;;;17.30;41.70;;;;;;5129219;27;20055;-87
2022/02/28 14:29:18;;;;;;;8.80;6.30;;;16.80;41.90;;;;;;5107935;27;20027;-82
2022/02/28 14:31:52;;;;;;;8.77;6.78;;;16.30;42.50;;;;;;5105270;27;20027;-86
2022/02/28 14:34:18;;;;;;;8.55;6.35;;;15.60;42.90;;;;;;5098742;27;20375;-82
2022/02/28 14:36:48;;;;;;;10.02;6.60;;;15.20;44.50;;;;;;5135787;27;20031;-86
2022/02/28 14:39:17;;;;;;;13.70;6.57;;;15.00;44.80;;;;;;5106829;27;20020;-84
2022/02/28 14:41:47;;;;;;;9.23;6.93;;;14.60;45.10;;;;;;5124050;27;20114;-85
2022/02/28 14:44:17;;;;;;;12.73;7.32;;;14.40;45.80;;;;;;5130325;27;20140;-87
2022/02/28 14:46:50;;;;;;;10.30;6.95;;;14.10;46.60;;;;;;5124061;27;20024;-85
2022/02/28 14:49:16;;;;;;;11.30;7.68;;;13.80;47.80;;;;;;5128053;27;20497;-86
2022/02/28 14:51:43;;;;;;;10.05;7.13;;;13.30;48.60;;;;;;5127981;27;20035;-83
2022/02/28 14:54:14;;;;;;;11.02;7.00;;;12.80;49.60;;;;;;5121469;27;20076;-85
2022/02/28 14:56:40;;;;;;;11.82;6.80;;;12.40;50.20;;;;;;5120714;27;20030;-82
2022/02/28 14:59:07;;;;;;;12.07;6.97;;;12.20;50.90;;;;;;5124526;27;20019;-82
2022/02/28 15:01:33;;;;;;;11.30;7.57;;;11.60;51.90;;;;;;5125381;27;20058;-86
2022/02/28 15:04:06;;;;;;;12.80;7.78;;;11.30;52.60;;;;;;5101840;27;20474;-85
2022/02/28 15:06:32;;;;;;;11.65;7.18;;;11.20;52.70;;;;;;5110197;28;20482;-83
2022/02/28 15:09:01;;;;;;;18.55;7.13;;;11.10;53.30;;;;;;5103645;27;20093;-83
2022/02/28 15:11:26;;;;;;;13.90;7.75;;;11.10;53.60;;;;;;5103424;27;20413;-83
2022/02/28 15:13:52;;;;;;;19.10;8.35;;;10.90;54.40;;;;;;5118146;27;20099;-82
2022/02/28 15:16:18;;;;;;;17.50;8.48;;;10.70;55.40;;;;;;5119918;27;20563;-81